createdAt,value
2023-01-29T00:01:17.737Z,32.50
2023-01-29T00:03:53.367Z,30.58
2023-01-29T00:06:27.063Z,27.63
2023-01-29T00:09:00.764Z,34.15
2023-01-29T00:11:35.006Z,30.10
2023-01-29T00:14:08.880Z,29.70
2023-01-29T00:16:42.678Z,30.55
2023-01-29T00:19:17.946Z,33.40
2023-01-29T00:21:51.476Z,31.92
2023-01-29T00:24:25.350Z,33.30
2023-01-29T00:26:58.975Z,35.00
2023-01-29T00:29:32.782Z,33.75
2023-01-29T00:32:06.618Z,31.27
2023-01-29T00:34:41.823Z,28.40
2023-01-29T00:37:15.494Z,31.60
2023-01-29T00:39:49.318Z,32.53
2023-01-29T00:42:40.746Z,31.88
2023-01-29T00:45:14.961Z,32.55
2023-01-29T00:47:48.595Z,37.00
2023-01-29T00:50:23.804Z,30.02
2023-01-29T00:52:57.382Z,33.38
2023-01-29T00:55:31.265Z,29.88
2023-01-29T00:58:04.734Z,30.48
2023-01-29T01:00:38.521Z,29.60
2023-01-29T01:03:11.030Z,29.17
2023-01-29T01:05:46.112Z,34.97
2023-01-29T01:08:37.162Z,27.13
2023-01-29T01:11:11.175Z,26.30
2023-01-29T01:13:44.839Z,24.45
2023-01-29T01:16:20.771Z,26.25
2023-01-29T01:18:54.392Z,29.10
2023-01-29T01:21:29.435Z,27.70
2023-01-29T01:24:05.926Z,26.65
2023-01-29T01:26:39.756Z,31.23
2023-01-29T01:29:13.556Z,29.38
2023-01-29T01:31:47.454Z,28.90
2023-01-29T01:34:22.047Z,24.75
2023-01-29T01:36:57.356Z,26.83
2023-01-29T01:39:31.118Z,23.35
2023-01-29T01:42:05.205Z,27.42
2023-01-29T01:45:01.076Z,27.98
2023-01-29T01:47:39.991Z,25.65
2023-01-29T01:50:17.636Z,27.77
2023-01-29T01:52:56.490Z,31.57
2023-01-29T01:55:34.224Z,28.15
2023-01-29T01:58:13.159Z,28.00
2023-01-29T02:00:46.794Z,33.58
2023-01-29T02:03:41.301Z,27.10
2023-01-29T02:06:32.239Z,22.35
2023-01-29T02:09:33.397Z,28.58
2023-01-29T02:12:09.851Z,27.52
2023-01-29T02:14:45.223Z,26.50
2023-01-29T02:17:20.579Z,30.42
2023-01-29T02:20:03.392Z,26.05
2023-01-29T02:22:59.052Z,23.90
2023-01-29T02:26:09.248Z,26.63
2023-01-29T02:28:49.007Z,24.05
2023-01-29T02:31:32.059Z,24.70
2023-01-29T02:34:14.326Z,26.15
2023-01-29T02:36:51.927Z,27.00
2023-01-29T02:39:34.164Z,25.08
2023-01-29T02:42:16.730Z,26.75
2023-01-29T02:44:58.529Z,23.33
2023-01-29T02:47:40.687Z,27.05
2023-01-29T02:50:20.467Z,25.27
2023-01-29T02:53:03.691Z,24.40
2023-01-29T02:55:43.454Z,26.88
2023-01-29T02:58:22.394Z,29.88
2023-01-29T03:01:03.903Z,24.92
2023-01-29T03:03:41.588Z,27.88
2023-01-29T03:06:22.336Z,24.35
2023-01-29T03:09:00.110Z,30.00
2023-01-29T03:11:38.268Z,31.75
2023-01-29T03:14:16.930Z,25.20
2023-01-29T03:16:53.480Z,26.70
2023-01-29T03:19:34.502Z,26.88
2023-01-29T03:22:11.443Z,23.95
2023-01-29T03:25:05.166Z,25.15
2023-01-29T03:28:01.675Z,25.60
2023-01-29T03:31:00.000Z,28.13
2023-01-29T03:33:43.404Z,29.67
2023-01-29T03:36:21.452Z,27.83
2023-01-29T03:38:54.997Z,25.42
2023-01-29T03:41:34.357Z,32.60
2023-01-29T03:44:16.714Z,27.33
2023-01-29T03:46:57.190Z,26.02
2023-01-29T03:49:46.850Z,25.80
2023-01-29T03:52:25.594Z,25.38
2023-01-29T03:55:06.877Z,22.13
2023-01-29T03:57:45.568Z,25.40
2023-01-29T04:00:25.959Z,22.60
2023-01-29T04:03:07.847Z,24.95
2023-01-29T04:05:48.134Z,21.92
2023-01-29T04:08:27.937Z,22.08
2023-01-29T04:11:06.861Z,19.42
2023-01-29T04:13:41.417Z,17.42
2023-01-29T04:16:19.586Z,24.77
2023-01-29T04:18:54.745Z,20.50
2023-01-29T04:21:31.814Z,25.80
2023-01-29T04:24:07.338Z,20.58
2023-01-29T04:26:56.603Z,20.83
2023-01-29T04:29:44.640Z,18.35
2023-01-29T04:32:27.426Z,19.20
2023-01-29T04:35:10.576Z,23.38
2023-01-29T04:37:55.268Z,23.55
2023-01-29T04:40:38.447Z,24.45
2023-01-29T04:43:21.282Z,24.92
2023-01-29T04:46:10.511Z,20.92
2023-01-29T04:49:02.755Z,20.13
2023-01-29T04:51:44.728Z,22.27
2023-01-29T04:54:27.648Z,24.67
2023-01-29T04:57:10.566Z,25.90
2023-01-29T04:59:48.625Z,23.63
2023-01-29T05:02:25.436Z,20.67
2023-01-29T05:04:59.932Z,25.33
2023-01-29T05:07:38.133Z,20.90
2023-01-29T05:10:15.706Z,24.70
2023-01-29T05:12:55.207Z,27.17
2023-01-29T05:15:35.354Z,25.25
2023-01-29T05:18:10.237Z,23.02
2023-01-29T05:20:45.523Z,24.05
2023-01-29T05:23:20.945Z,25.85
2023-01-29T05:25:57.668Z,27.38
2023-01-29T05:28:30.638Z,26.48
2023-01-29T05:31:04.308Z,25.60
2023-01-29T05:33:38.057Z,25.70
2023-01-29T05:36:11.745Z,22.77
2023-01-29T05:38:45.448Z,24.48
2023-01-29T05:41:21.018Z,26.50
2023-01-29T05:43:54.911Z,28.15
2023-01-29T05:46:28.547Z,30.85
2023-01-29T05:49:02.827Z,29.05
2023-01-29T05:51:36.632Z,27.80
2023-01-29T05:54:12.585Z,29.85
2023-01-29T05:56:47.662Z,30.02
2023-01-29T05:59:21.456Z,27.63
2023-01-29T06:01:55.032Z,28.70
2023-01-29T06:04:28.735Z,29.77
2023-01-29T06:07:03.421Z,32.22
2023-01-29T06:09:37.182Z,28.23
2023-01-29T06:12:12.929Z,32.08
2023-01-29T06:14:46.763Z,36.42
2023-01-29T06:17:20.586Z,32.42
2023-01-29T06:19:54.368Z,31.08
2023-01-29T06:22:28.122Z,31.45
2023-01-29T06:25:01.977Z,31.25
2023-01-29T06:27:37.148Z,30.52
2023-01-29T06:30:12.044Z,31.25
2023-01-29T06:32:45.732Z,30.00
2023-01-29T06:35:19.507Z,29.05
2023-01-29T06:37:53.210Z,31.88
2023-01-29T06:40:26.982Z,30.33
2023-01-29T06:43:02.668Z,30.10
2023-01-29T06:45:36.439Z,32.70
2023-01-29T06:48:09.998Z,33.55
2023-01-29T06:50:43.938Z,28.50
2023-01-29T06:53:18.162Z,26.45
2023-01-29T06:55:55.257Z,28.83
2023-01-29T06:58:30.245Z,28.95
2023-01-29T07:01:05.656Z,31.95
2023-01-29T07:03:41.517Z,26.48
2023-01-29T07:06:15.304Z,27.95
2023-01-29T07:08:48.847Z,27.60
2023-01-29T07:11:23.657Z,28.33
2023-01-29T07:13:58.601Z,27.88
2023-01-29T07:16:32.706Z,27.40
2023-01-29T07:19:06.272Z,29.23
2023-01-29T07:21:40.082Z,25.23
2023-01-29T07:24:13.795Z,26.83
2023-01-29T07:26:47.554Z,25.98
2023-01-29T07:29:22.462Z,26.75
2023-01-29T07:31:56.352Z,26.35
2023-01-29T07:34:30.055Z,32.88
2023-01-29T07:37:04.285Z,24.40
2023-01-29T07:39:37.869Z,24.83
2023-01-29T07:42:11.574Z,25.95
2023-01-29T07:44:46.522Z,28.25
2023-01-29T07:47:20.239Z,30.40
2023-01-29T07:49:53.834Z,34.63
2023-01-29T07:52:27.743Z,33.97
2023-01-29T07:55:01.341Z,29.88
2023-01-29T07:57:35.165Z,33.97
2023-01-29T08:00:12.737Z,31.73
2023-01-29T08:02:46.576Z,32.65
2023-01-29T08:05:20.583Z,32.60
2023-01-29T08:08:06.011Z,34.85
2023-01-29T08:10:41.608Z,33.08
2023-01-29T08:13:16.081Z,33.45
2023-01-29T08:15:51.125Z,36.90
2023-01-29T08:18:24.926Z,35.90
2023-01-29T08:21:01.784Z,34.50
2023-01-29T08:23:35.903Z,30.90
2023-01-29T08:26:09.715Z,36.35
2023-01-29T08:28:43.439Z,40.20
2023-01-29T08:31:20.472Z,37.13
2023-01-29T08:33:55.691Z,38.72
2023-01-29T08:36:29.686Z,38.03
2023-01-29T08:39:03.805Z,41.22
2023-01-29T08:41:37.453Z,47.50
2023-01-29T08:44:11.404Z,41.10
2023-01-29T08:46:46.302Z,35.78
2023-01-29T08:49:20.083Z,41.92
2023-01-29T08:51:53.920Z,43.17
2023-01-29T08:54:27.842Z,40.63
2023-01-29T08:57:03.860Z,48.90
2023-01-29T08:59:38.208Z,49.22
2023-01-29T09:02:13.536Z,51.33
2023-01-29T09:04:47.518Z,52.92
2023-01-29T09:07:21.873Z,52.05
2023-01-29T09:09:56.392Z,54.00
2023-01-29T09:12:29.897Z,55.63
2023-01-29T09:15:03.965Z,59.95
2023-01-29T09:17:39.473Z,54.35
2023-01-29T09:20:13.677Z,55.30
2023-01-29T09:22:47.372Z,59.10
2023-01-29T09:25:21.215Z,53.95
2023-01-29T09:27:55.239Z,55.10
2023-01-29T09:30:29.035Z,52.13
2023-01-29T09:33:06.067Z,56.17
2023-01-29T09:35:42.152Z,59.97
2023-01-29T09:38:15.728Z,56.88
2023-01-29T09:40:57.160Z,56.00
2023-01-29T09:43:42.176Z,54.67
2023-01-29T09:46:22.355Z,54.45
2023-01-29T09:49:05.281Z,54.83
2023-01-29T09:51:42.652Z,65.30
2023-01-29T09:54:22.731Z,60.03
2023-01-29T09:56:58.055Z,58.15
2023-01-29T09:59:33.187Z,57.05
2023-01-29T10:02:11.457Z,58.20
2023-01-29T10:05:15.474Z,60.05
2023-01-29T10:08:14.429Z,52.95
2023-01-29T10:10:51.508Z,65.35
2023-01-29T10:13:33.977Z,63.28
2023-01-29T10:16:22.802Z,59.47
2023-01-29T10:19:16.314Z,63.17
2023-01-29T10:22:10.817Z,55.30
2023-01-29T10:24:53.612Z,65.35
2023-01-29T10:27:34.833Z,66.15
2023-01-29T10:30:10.937Z,67.65
2023-01-29T10:32:45.418Z,67.97
2023-01-29T10:35:26.116Z,68.47
2023-01-29T10:38:16.919Z,68.72
2023-01-29T10:41:00.845Z,72.18
2023-01-29T10:43:40.144Z,63.83
2023-01-29T10:46:24.941Z,68.50
2023-01-29T10:49:09.679Z,64.22
2023-01-29T10:51:57.919Z,57.40
2023-01-29T10:54:46.644Z,61.05
2023-01-29T10:57:27.646Z,60.67
2023-01-29T11:00:12.992Z,63.38
2023-01-29T11:02:50.234Z,53.70
2023-01-29T11:05:30.776Z,57.13
2023-01-29T11:08:09.741Z,57.38
2023-01-29T11:13:27.217Z,62.08
2023-01-29T11:16:01.032Z,52.83
2023-01-29T11:18:50.982Z,51.90
2023-01-29T11:21:28.697Z,47.05
2023-01-29T11:24:16.713Z,50.90
2023-01-29T11:26:55.287Z,50.17
2023-01-29T11:29:34.954Z,51.60
2023-01-29T11:32:13.527Z,50.53
2023-01-29T11:35:01.994Z,46.83
2023-01-29T11:37:38.330Z,48.97
2023-01-29T11:40:37.816Z,47.25
2023-01-29T11:43:23.597Z,46.33
2023-01-29T11:46:00.193Z,49.60
2023-01-29T11:48:42.465Z,44.65
2023-01-29T11:51:23.631Z,46.90
2023-01-29T11:53:59.412Z,46.00
2023-01-29T11:56:41.061Z,47.05
2023-01-29T11:59:37.300Z,44.40
2023-01-29T12:02:28.321Z,45.17
2023-01-29T12:05:05.900Z,44.35
2023-01-29T12:07:42.724Z,50.72
2023-01-29T12:10:35.422Z,46.95
2023-01-29T12:13:26.604Z,45.88
2023-01-29T12:16:15.502Z,51.08
2023-01-29T12:18:55.137Z,51.75
2023-01-29T12:21:36.904Z,48.55
2023-01-29T12:24:20.562Z,49.20
2023-01-29T12:26:59.149Z,47.42
2023-01-29T12:32:28.901Z,48.80
2023-01-29T12:35:07.339Z,44.65
2023-01-29T12:37:49.651Z,43.47
2023-01-29T12:40:28.063Z,51.85
2023-01-29T12:43:07.772Z,46.80
2023-01-29T12:45:44.876Z,46.35
2023-01-29T12:48:25.586Z,48.45
2023-01-29T12:51:08.039Z,52.03
2023-01-29T12:53:49.071Z,51.20
2023-01-29T12:56:30.845Z,50.88
2023-01-29T12:59:14.932Z,52.03
2023-01-29T13:01:53.580Z,51.20
2023-01-29T13:04:39.181Z,48.63
2023-01-29T13:07:17.087Z,45.33
2023-01-29T13:09:54.334Z,45.03
2023-01-29T13:12:28.671Z,47.90
2023-01-29T13:15:06.827Z,46.85
2023-01-29T13:17:44.977Z,44.92
2023-01-29T13:20:25.089Z,45.13
2023-01-29T13:23:04.796Z,42.50
2023-01-29T13:25:41.869Z,46.35
2023-01-29T13:28:21.007Z,45.78
2023-01-29T13:33:55.121Z,45.45
2023-01-29T13:36:32.245Z,44.80
2023-01-29T13:39:08.760Z,42.25
2023-01-29T13:41:44.139Z,42.08
2023-01-29T13:44:23.086Z,44.67
2023-01-29T13:46:59.715Z,46.97
2023-01-29T13:49:40.125Z,42.25
2023-01-29T13:52:32.531Z,38.67
2023-01-29T13:55:09.143Z,48.97
2023-01-29T13:57:56.635Z,48.70
2023-01-29T14:01:01.965Z,44.92
2023-01-29T14:04:10.135Z,41.15
2023-01-29T14:06:50.119Z,41.85
2023-01-29T14:10:05.810Z,45.47
2023-01-29T14:12:46.310Z,48.53
2023-01-29T14:15:28.825Z,44.40
2023-01-29T14:18:15.522Z,45.67
2023-01-29T14:21:02.367Z,44.20
2023-01-29T14:23:42.353Z,47.35
2023-01-29T14:26:34.202Z,47.47
2023-01-29T14:29:32.537Z,44.47
2023-01-29T14:32:15.780Z,50.17
2023-01-29T14:34:51.952Z,47.58
2023-01-29T14:37:32.631Z,51.88
2023-01-29T14:40:21.545Z,52.20
2023-01-29T14:43:01.133Z,43.85
2023-01-29T14:45:37.713Z,47.28
2023-01-29T14:48:36.171Z,49.90
2023-01-29T14:53:53.090Z,47.30
2023-01-29T14:56:34.474Z,45.67
2023-01-29T14:59:17.409Z,45.53
2023-01-29T15:01:55.917Z,47.40
2023-01-29T15:04:34.492Z,47.33
2023-01-29T15:07:18.946Z,46.47
2023-01-29T15:10:07.900Z,46.33
2023-01-29T15:12:54.280Z,48.67
2023-01-29T15:15:36.325Z,47.17
2023-01-29T15:18:16.784Z,48.85
2023-01-29T15:20:50.485Z,51.13
2023-01-29T15:23:28.631Z,49.13
2023-01-29T15:26:04.278Z,47.40
2023-01-29T15:28:39.711Z,51.70
2023-01-29T15:31:17.556Z,57.65
2023-01-29T15:33:56.053Z,58.80
2023-01-29T15:36:32.635Z,54.75
2023-01-29T15:39:15.586Z,61.58
2023-01-29T15:41:50.799Z,62.25
2023-01-29T15:44:24.765Z,62.80
2023-01-29T15:47:02.216Z,59.35
2023-01-29T15:49:40.562Z,57.53
2023-01-29T15:52:18.797Z,55.38
2023-01-29T15:54:53.926Z,58.60
2023-01-29T15:57:34.236Z,62.38
2023-01-29T16:00:21.090Z,60.28
2023-01-29T16:02:55.562Z,57.35
2023-01-29T16:05:33.031Z,54.45
2023-01-29T16:08:07.957Z,55.25
2023-01-29T16:10:43.220Z,50.35
2023-01-29T16:13:21.806Z,54.78
2023-01-29T16:18:34.536Z,51.88
2023-01-29T16:21:15.604Z,51.90
2023-01-29T16:23:52.093Z,52.55
2023-01-29T16:26:29.161Z,53.28
2023-01-29T16:29:21.756Z,53.22
2023-01-29T16:32:01.878Z,55.60
2023-01-29T16:34:38.813Z,52.05
2023-01-29T16:37:24.761Z,54.13
2023-01-29T16:39:59.155Z,54.10
2023-01-29T16:42:35.920Z,48.47
2023-01-29T16:45:27.686Z,46.63
2023-01-29T16:48:02.853Z,48.60
2023-01-29T16:50:54.049Z,51.95
2023-01-29T16:53:30.133Z,50.17
2023-01-29T16:56:06.841Z,49.38
2023-01-29T16:58:40.656Z,48.38
2023-01-29T17:01:15.416Z,52.83
2023-01-29T17:03:56.333Z,53.05
2023-01-29T17:06:32.779Z,47.13
2023-01-29T17:09:08.324Z,50.15
2023-01-29T17:11:42.762Z,47.15
2023-01-29T17:14:20.153Z,44.85
2023-01-29T17:16:55.919Z,51.72
2023-01-29T17:19:30.253Z,51.17
2023-01-29T17:22:05.573Z,45.25
2023-01-29T17:24:40.818Z,47.85
2023-01-29T17:27:20.039Z,56.05
2023-01-29T17:29:54.165Z,39.28
2023-01-29T17:32:44.273Z,44.30
2023-01-29T17:35:19.261Z,42.65
2023-01-29T17:37:53.136Z,38.00
2023-01-29T17:40:36.577Z,44.45
2023-01-29T17:43:11.706Z,39.47
2023-01-29T17:45:45.539Z,49.55
2023-01-29T17:48:21.859Z,38.92
2023-01-29T17:50:57.806Z,37.83
2023-01-29T17:53:45.358Z,41.10
2023-01-29T17:56:27.547Z,43.55
2023-01-29T17:59:01.877Z,37.42
2023-01-29T18:01:35.745Z,45.25
2023-01-29T18:04:09.933Z,39.15
2023-01-29T18:06:45.240Z,41.67
2023-01-29T18:09:21.475Z,45.53
2023-01-29T18:11:56.691Z,40.92
2023-01-29T18:14:30.242Z,43.65
2023-01-29T18:17:04.199Z,42.05
2023-01-29T18:19:37.654Z,46.60
2023-01-29T18:22:13.487Z,43.85
2023-01-29T18:24:47.070Z,45.05
2023-01-29T18:27:22.249Z,41.78
2023-01-29T18:29:55.958Z,39.88
2023-01-29T18:32:29.814Z,47.88
2023-01-29T18:35:03.756Z,44.45
2023-01-29T18:37:37.658Z,41.25
2023-01-29T18:40:13.787Z,44.20
2023-01-29T18:42:49.126Z,43.95
2023-01-29T18:45:22.728Z,43.00
2023-01-29T18:47:57.635Z,44.25
2023-01-29T18:50:31.893Z,42.72
2023-01-29T18:53:07.970Z,43.35
2023-01-29T18:55:41.972Z,45.13
2023-01-29T18:58:28.125Z,44.22
2023-01-29T19:01:12.018Z,47.95
2023-01-29T19:03:45.921Z,49.33
2023-01-29T19:06:19.594Z,47.80
2023-01-29T19:08:53.493Z,54.35
2023-01-29T19:11:27.430Z,53.55
2023-01-29T19:14:02.791Z,54.83
2023-01-29T19:16:36.408Z,52.00
2023-01-29T19:19:10.313Z,49.25
2023-01-29T19:21:43.960Z,58.38
2023-01-29T19:24:18.648Z,56.25
2023-01-29T19:26:52.413Z,56.35
2023-01-29T19:29:27.688Z,56.95
2023-01-29T19:32:01.462Z,62.65
2023-01-29T19:34:35.364Z,66.22
2023-01-29T19:37:09.291Z,67.68
2023-01-29T19:39:43.233Z,70.32
2023-01-29T19:42:17.408Z,61.60
2023-01-29T19:44:53.370Z,77.93
2023-01-29T19:47:27.120Z,74.10
2023-01-29T19:50:00.898Z,68.75
2023-01-29T19:52:51.076Z,73.03
2023-01-29T19:55:25.999Z,80.30
2023-01-29T19:57:59.649Z,75.25
2023-01-29T20:00:36.981Z,79.35
2023-01-29T20:03:10.691Z,74.80
2023-01-29T20:05:44.407Z,69.82
2023-01-29T20:08:18.348Z,69.57
2023-01-29T20:10:52.233Z,80.32
2023-01-29T20:13:26.278Z,78.13
2023-01-29T20:16:03.129Z,81.68
2023-01-29T20:18:36.668Z,89.13
2023-01-29T20:21:12.767Z,79.43
2023-01-29T20:23:46.397Z,82.00
2023-01-29T20:26:21.748Z,84.35
2023-01-29T20:28:55.533Z,81.00
2023-01-29T20:31:30.739Z,84.35
2023-01-29T20:34:04.377Z,76.13
2023-01-29T20:36:38.131Z,82.13
2023-01-29T20:39:11.789Z,79.97
2023-01-29T20:41:45.726Z,83.93
2023-01-29T20:44:19.415Z,80.20
2023-01-29T20:46:54.858Z,83.53
2023-01-29T20:49:29.000Z,84.70
2023-01-29T20:52:02.724Z,80.20
2023-01-29T20:54:37.081Z,78.53
2023-01-29T20:57:10.865Z,77.05
2023-01-29T20:59:45.117Z,83.05
2023-01-29T21:02:20.325Z,84.82
2023-01-29T21:04:54.021Z,78.43
2023-01-29T21:07:27.765Z,75.72
2023-01-29T21:10:01.511Z,78.13
2023-01-29T21:12:35.924Z,84.80
2023-01-29T21:15:10.846Z,84.57
2023-01-29T21:17:48.337Z,77.97
2023-01-29T21:20:22.055Z,80.40
2023-01-29T21:22:56.019Z,80.22
2023-01-29T21:25:29.702Z,82.78
2023-01-29T21:28:04.372Z,77.95
2023-01-29T21:30:38.322Z,78.60
2023-01-29T21:33:13.435Z,74.13
2023-01-29T21:35:46.920Z,76.47
2023-01-29T21:38:20.749Z,75.65
2023-01-29T21:40:59.911Z,76.25
2023-01-29T21:43:33.279Z,74.63
2023-01-29T21:46:11.538Z,76.45
2023-01-29T21:48:46.886Z,65.28
2023-01-29T21:51:20.423Z,74.97
2023-01-29T21:53:54.210Z,72.20
2023-01-29T21:56:27.744Z,67.25
2023-01-29T21:59:02.345Z,69.90
2023-01-29T22:01:38.691Z,70.72
2023-01-29T22:04:15.613Z,70.45
2023-01-29T22:06:49.236Z,73.38
2023-01-29T22:09:23.506Z,64.03
2023-01-29T22:11:57.318Z,70.90
2023-01-29T22:14:31.241Z,70.45
2023-01-29T22:17:05.828Z,68.80
2023-01-29T22:19:41.102Z,72.70
2023-01-29T22:22:15.527Z,73.50
2023-01-29T22:24:50.749Z,74.53
2023-01-29T22:27:24.579Z,72.78
2023-01-29T22:29:58.323Z,70.47
2023-01-29T22:32:32.900Z,71.85
2023-01-29T22:35:09.356Z,73.38
2023-01-29T22:37:43.048Z,75.40
2023-01-29T22:40:17.428Z,64.40
2023-01-29T22:42:51.092Z,71.45
2023-01-29T22:45:24.945Z,61.33
2023-01-29T22:47:58.561Z,60.03
2023-01-29T22:50:33.693Z,59.60
2023-01-29T22:53:07.966Z,63.25
2023-01-29T22:55:41.838Z,62.80
2023-01-29T22:58:15.361Z,61.40
2023-01-29T23:00:50.949Z,61.38
2023-01-29T23:03:24.674Z,63.00
2023-01-29T23:05:59.815Z,63.05
2023-01-29T23:08:33.738Z,65.15
2023-01-29T23:11:15.052Z,66.10
2023-01-29T23:13:50.378Z,64.75
2023-01-29T23:16:28.172Z,65.97
2023-01-29T23:19:01.960Z,72.80
2023-01-29T23:21:37.180Z,63.42
2023-01-29T23:24:11.678Z,61.10
2023-01-29T23:27:02.920Z,70.10
2023-01-29T23:29:36.548Z,64.50
2023-01-29T23:32:10.775Z,55.63
2023-01-29T23:34:44.407Z,63.45
2023-01-29T23:37:19.680Z,65.28
2023-01-29T23:39:53.350Z,58.58
2023-01-29T23:42:27.123Z,58.47
2023-01-29T23:45:00.639Z,52.80
2023-01-29T23:47:34.448Z,62.83
2023-01-29T23:50:09.012Z,63.67
2023-01-29T23:52:44.249Z,66.68
2023-01-29T23:55:17.798Z,46.67
2023-01-29T23:57:51.471Z,58.60
